createdAt,value
2023-01-11T00:00:39.034Z,98594.00
2023-01-11T00:01:40.332Z,98596.31
2023-01-11T00:02:41.608Z,98595.00
2023-01-11T00:03:42.922Z,98588.13
2023-01-11T00:04:49.140Z,98588.38
2023-01-11T00:05:50.441Z,98590.72
2023-01-11T00:06:51.748Z,98590.94
2023-01-11T00:07:53.073Z,98592.75
2023-01-11T00:08:54.338Z,98587.72
2023-01-11T00:09:55.554Z,98588.75
2023-01-11T00:10:56.846Z,98588.47
2023-01-11T00:11:58.134Z,98584.78
2023-01-11T00:13:00.254Z,98586.88
2023-01-11T00:14:01.503Z,98590.00
2023-01-11T00:15:02.788Z,98588.19
2023-01-11T00:16:07.487Z,98584.25
2023-01-11T00:17:08.864Z,98586.88
2023-01-11T00:18:10.567Z,98584.25
2023-01-11T00:19:11.909Z,98588.19
2023-01-11T00:20:13.173Z,98581.31
2023-01-11T00:21:14.765Z,98583.19
2023-01-11T00:22:16.041Z,98583.19
2023-01-11T00:23:17.357Z,98582.63
2023-01-11T00:24:18.629Z,98576.59
2023-01-11T00:25:19.886Z,98565.47
2023-01-11T00:26:21.090Z,98570.75
2023-01-11T00:27:22.439Z,98569.72
2023-01-11T00:28:23.760Z,98568.09
2023-01-11T00:29:25.003Z,98558.13
2023-01-11T00:30:26.660Z,98563.13
2023-01-11T00:31:27.932Z,98556.19
2023-01-11T00:32:29.138Z,98552.22
2023-01-11T00:33:30.394Z,98557.44
2023-01-11T00:34:31.680Z,98562.72
2023-01-11T00:35:32.951Z,98554.81
2023-01-11T00:36:34.235Z,98552.44
2023-01-11T00:37:35.462Z,98556.94
2023-01-11T00:38:36.736Z,98550.88
2023-01-11T00:39:38.025Z,98556.66
2023-01-11T00:40:39.345Z,98551.13
2023-01-11T00:41:40.593Z,98544.53
2023-01-11T00:42:41.847Z,98547.41
2023-01-11T00:43:43.038Z,98551.63
2023-01-11T00:44:44.308Z,98544.75
2023-01-11T00:45:45.566Z,98541.81
2023-01-11T00:46:46.854Z,98548.94
2023-01-11T00:47:48.089Z,98545.81
2023-01-11T00:48:49.298Z,98537.13
2023-01-11T00:49:50.538Z,98535.25
2023-01-11T00:50:53.651Z,98537.63
2023-01-11T00:51:54.955Z,98543.66
2023-01-11T00:52:57.296Z,98539.72
2023-01-11T00:53:58.576Z,98534.94
2023-01-11T00:54:59.850Z,98533.66
2023-01-11T00:56:01.141Z,98534.44
2023-01-11T00:57:02.844Z,98540.50
2023-01-11T00:58:06.694Z,98528.88
2023-01-11T00:59:08.258Z,98530.19
2023-01-11T01:00:09.925Z,98525.69
2023-01-11T01:01:11.280Z,98520.91
2023-01-11T01:02:12.943Z,98522.22
2023-01-11T01:03:14.217Z,98522.44
2023-01-11T01:04:15.477Z,98517.44
2023-01-11T01:05:17.146Z,98516.38
2023-01-11T01:06:18.400Z,98517.41
2023-01-11T01:07:19.629Z,98511.56
2023-01-11T01:08:20.894Z,98514.72
2023-01-11T01:09:22.140Z,98506.31
2023-01-11T01:10:23.349Z,98509.44
2023-01-11T01:11:24.648Z,98506.31
2023-01-11T01:12:25.908Z,98503.91
2023-01-11T01:13:27.109Z,98507.88
2023-01-11T01:14:28.884Z,98504.44
2023-01-11T01:15:30.595Z,98505.53
2023-01-11T01:16:31.872Z,98507.88
2023-01-11T01:17:33.142Z,98499.94
2023-01-11T01:18:34.422Z,98504.88
2023-01-11T01:19:37.451Z,98502.78
2023-01-11T01:20:38.723Z,98499.59
2023-01-11T01:21:39.999Z,98508.59
2023-01-11T01:22:41.361Z,98502.25
2023-01-11T01:23:42.599Z,98498.81
2023-01-11T01:24:43.840Z,98507.75
2023-01-11T01:25:45.099Z,98515.38
2023-01-11T01:26:46.296Z,98516.91
2023-01-11T01:27:47.579Z,98510.63
2023-01-11T01:28:49.216Z,98512.47
2023-01-11T01:29:50.415Z,98513.53
2023-01-11T01:30:52.028Z,98514.06
2023-01-11T01:31:53.262Z,98515.91
2023-01-11T01:32:54.460Z,98519.25
2023-01-11T01:33:55.790Z,98518.47
2023-01-11T01:34:57.215Z,98524.53
2023-01-11T01:35:58.485Z,98508.72
2023-01-11T01:36:59.685Z,98510.50
2023-01-11T01:38:00.948Z,98505.22
2023-01-11T01:39:03.347Z,98510.22
2023-01-11T01:40:05.284Z,98508.13
2023-01-11T01:41:06.603Z,98505.69
2023-01-11T01:42:16.946Z,98501.22
2023-01-11T01:43:18.214Z,98502.00
2023-01-11T01:44:38.238Z,98499.34
2023-01-11T01:45:39.825Z,98500.41
2023-01-11T01:46:41.148Z,98495.69
2023-01-11T01:47:45.769Z,98507.84
2023-01-11T01:48:50.103Z,98494.09
2023-01-11T01:49:51.399Z,98492.81
2023-01-11T01:50:55.300Z,98499.63
2023-01-11T01:51:57.401Z,98497.28
2023-01-11T01:53:02.511Z,98495.38
2023-01-11T01:54:07.060Z,98492.19
2023-01-11T01:55:10.578Z,98486.69
2023-01-11T01:56:15.730Z,98489.59
2023-01-11T01:57:22.282Z,98492.00
2023-01-11T01:58:26.742Z,98501.53
2023-01-11T01:59:29.818Z,98489.19
2023-01-11T02:00:31.217Z,98485.53
2023-01-11T02:01:32.544Z,98480.47
2023-01-11T02:02:34.585Z,98479.19
2023-01-11T02:03:35.952Z,98480.97
2023-01-11T02:04:38.971Z,98480.47
2023-01-11T02:05:40.277Z,98480.47
2023-01-11T02:06:42.151Z,98482.34
2023-01-11T02:07:44.001Z,98476.47
2023-01-11T02:08:49.854Z,98474.72
2023-01-11T02:10:01.943Z,98472.06
2023-01-11T02:11:04.386Z,98465.50
2023-01-11T02:12:06.775Z,98463.63
2023-01-11T02:13:10.267Z,98465.78
2023-01-11T02:14:14.489Z,98462.13
2023-01-11T02:15:17.323Z,98462.69
2023-01-11T02:16:18.613Z,98459.25
2023-01-11T02:17:19.908Z,98461.13
2023-01-11T02:18:23.523Z,98464.00
2023-01-11T02:19:24.697Z,98454.00
2023-01-11T02:20:34.792Z,98451.59
2023-01-11T02:21:46.860Z,98464.00
2023-01-11T02:23:04.043Z,98449.25
2023-01-11T02:24:35.143Z,98451.34
2023-01-11T02:25:42.369Z,98448.94
2023-01-11T02:27:02.594Z,98445.53
2023-01-11T02:28:22.389Z,98446.53
2023-01-11T02:29:23.602Z,98446.25
2023-01-11T02:30:28.887Z,98443.06
2023-01-11T02:31:50.402Z,98433.00
2023-01-11T02:33:03.939Z,98432.50
2023-01-11T02:34:16.145Z,98440.13
2023-01-11T02:35:20.227Z,98427.94
2023-01-11T02:36:24.580Z,98433.22
2023-01-11T02:37:45.197Z,98421.38
2023-01-11T02:38:51.366Z,98429.28
2023-01-11T02:40:01.986Z,98428.50
2023-01-11T02:41:14.459Z,98428.69
2023-01-11T02:42:35.386Z,98428.69
2023-01-11T02:43:42.581Z,98426.53
2023-01-11T02:44:54.993Z,98427.63
2023-01-11T02:46:01.202Z,98433.13
2023-01-11T02:47:05.495Z,98428.09
2023-01-11T02:48:14.326Z,98436.03
2023-01-11T02:49:15.501Z,98445.47
2023-01-11T02:50:16.688Z,98442.81
2023-01-11T02:51:21.978Z,98440.38
2023-01-11T02:52:29.217Z,98439.47
2023-01-11T02:53:45.366Z,98436.03
2023-01-11T02:54:49.003Z,98445.25
2023-01-11T02:55:52.815Z,98432.84
2023-01-11T02:56:57.066Z,98441.75
2023-01-11T02:58:00.801Z,98430.34
2023-01-11T02:59:02.460Z,98428.72
2023-01-11T03:00:04.031Z,98434.00
2023-01-11T03:01:05.478Z,98429.13
2023-01-11T03:02:06.803Z,98421.50
2023-01-11T03:03:14.382Z,98434.97
2023-01-11T03:04:22.475Z,98423.16
2023-01-11T03:05:23.699Z,98426.00
2023-01-11T03:06:34.731Z,98428.91
2023-01-11T03:07:45.481Z,98423.16
2023-01-11T03:09:05.639Z,98432.34
2023-01-11T03:10:06.885Z,98420.44
2023-01-11T03:11:20.029Z,98422.22
2023-01-11T03:12:24.349Z,98424.56
2023-01-11T03:13:40.980Z,98419.06
2023-01-11T03:14:50.882Z,98423.06
2023-01-11T03:16:00.707Z,98419.13
2023-01-11T03:17:11.941Z,98420.06
2023-01-11T03:18:21.937Z,98424.56
2023-01-11T03:19:28.012Z,98422.78
2023-01-11T03:20:31.850Z,98423.84
2023-01-11T03:21:55.676Z,98423.56
2023-01-11T03:23:06.277Z,98422.44
2023-01-11T03:24:13.505Z,98410.78
2023-01-11T03:25:21.942Z,98411.28
2023-01-11T03:26:41.729Z,98416.06
2023-01-11T03:27:50.670Z,98416.84
2023-01-11T03:28:56.024Z,98415.00
2023-01-11T03:29:57.275Z,98418.41
2023-01-11T03:31:01.839Z,98411.97
2023-01-11T03:32:14.094Z,98409.94
2023-01-11T03:33:30.443Z,98411.78
2023-01-11T03:34:31.694Z,98412.50
2023-01-11T03:35:41.854Z,98414.06
2023-01-11T03:36:47.627Z,98405.06
2023-01-11T03:38:04.134Z,98402.91
2023-01-11T03:39:08.728Z,98410.06
2023-01-11T03:40:13.716Z,98399.50
2023-01-11T03:41:19.236Z,98414.84
2023-01-11T03:42:22.157Z,98405.06
2023-01-11T03:43:24.541Z,98410.84
2023-01-11T03:44:27.894Z,98402.63
2023-01-11T03:45:30.859Z,98405.25
2023-01-11T03:46:36.159Z,98395.69
2023-01-11T03:47:37.725Z,98400.97
2023-01-11T03:49:05.203Z,98400.97
2023-01-11T03:50:09.061Z,98405.19
2023-01-11T03:51:12.455Z,98399.41
2023-01-11T03:52:15.994Z,98401.53
2023-01-11T03:53:18.406Z,98401.25
2023-01-11T03:54:23.415Z,98408.41
2023-01-11T03:55:26.589Z,98394.13
2023-01-11T03:56:36.522Z,98388.63
2023-01-11T03:57:42.289Z,98395.97
2023-01-11T03:58:43.929Z,98389.91
2023-01-11T03:59:45.271Z,98390.13
2023-01-11T04:00:47.363Z,98397.75
2023-01-11T04:01:48.587Z,98387.97
2023-01-11T04:02:50.735Z,98387.47
2023-01-11T04:03:51.991Z,98385.63
2023-01-11T04:04:53.299Z,98380.31
2023-01-11T04:05:57.141Z,98384.53
2023-01-11T04:06:58.445Z,98382.66
2023-01-11T04:07:59.676Z,98371.06
2023-01-11T04:09:00.982Z,98372.63
2023-01-11T04:10:02.252Z,98364.69
2023-01-11T04:11:03.977Z,98370.97
2023-01-11T04:12:05.418Z,98368.03
2023-01-11T04:13:06.675Z,98369.03
2023-01-11T04:14:07.918Z,98371.97
2023-01-11T04:15:09.648Z,98380.16
2023-01-11T04:16:10.912Z,98376.72
2023-01-11T04:17:12.129Z,98369.41
2023-01-11T04:18:13.348Z,98371.75
2023-01-11T04:19:14.596Z,98366.38
2023-01-11T04:20:15.948Z,98359.91
2023-01-11T04:21:17.542Z,98353.56
2023-01-11T04:22:18.943Z,98354.63
2023-01-11T04:23:20.217Z,98359.84
2023-01-11T04:24:21.473Z,98358.47
2023-01-11T04:25:22.731Z,98360.03
2023-01-11T04:26:23.991Z,98356.91
2023-01-11T04:27:25.241Z,98354.53
2023-01-11T04:28:26.531Z,98353.97
2023-01-11T04:29:27.749Z,98353.56
2023-01-11T04:30:29.090Z,98354.97
2023-01-11T04:31:30.420Z,98351.03
2023-01-11T04:32:31.709Z,98348.59
2023-01-11T04:33:32.955Z,98348.91
2023-01-11T04:34:34.163Z,98357.09
2023-01-11T04:35:35.449Z,98360.16
2023-01-11T04:36:36.706Z,98358.09
2023-01-11T04:37:38.186Z,98362.00
2023-01-11T04:38:39.512Z,98359.06
2023-01-11T04:39:40.813Z,98355.66
2023-01-11T04:40:42.183Z,98355.66
2023-01-11T04:41:43.542Z,98352.69
2023-01-11T04:42:45.943Z,98356.22
2023-01-11T04:43:47.305Z,98348.28
2023-01-11T04:44:49.307Z,98344.56
2023-01-11T04:45:50.573Z,98346.44
2023-01-11T04:46:52.040Z,98349.84
2023-01-11T04:47:53.960Z,98352.69
2023-01-11T04:48:55.170Z,98346.16
2023-01-11T04:49:56.396Z,98348.28
2023-01-11T04:50:57.623Z,98348.59
2023-01-11T04:51:58.878Z,98353.09
2023-01-11T04:53:00.098Z,98342.44
2023-01-11T04:54:01.343Z,98344.47
2023-01-11T04:55:02.761Z,98339.00
2023-01-11T04:56:05.010Z,98336.84
2023-01-11T04:57:07.172Z,98340.06
2023-01-11T04:58:08.388Z,98344.97
2023-01-11T04:59:09.592Z,98346.84
2023-01-11T05:00:11.301Z,98345.75
2023-01-11T05:01:15.562Z,98342.34
2023-01-11T05:02:17.873Z,98344.97
2023-01-11T05:03:19.073Z,98346.63
2023-01-11T05:04:20.366Z,98345.34
2023-01-11T05:05:21.610Z,98349.84
2023-01-11T05:06:22.901Z,98342.78
2023-01-11T05:07:24.164Z,98338.59
2023-01-11T05:08:26.416Z,98340.66
2023-01-11T05:09:27.665Z,98342.22
2023-01-11T05:10:29.001Z,98345.34
2023-01-11T05:11:30.264Z,98340.88
2023-01-11T05:12:31.493Z,98341.81
2023-01-11T05:13:33.067Z,98336.28
2023-01-11T05:14:34.291Z,98331.66
2023-01-11T05:15:35.582Z,98342.81
2023-01-11T05:16:37.226Z,98331.47
2023-01-11T05:17:38.467Z,98331.16
2023-01-11T05:18:44.025Z,98330.09
2023-01-11T05:19:45.264Z,98325.69
2023-01-11T05:20:48.774Z,98327.25
2023-01-11T05:21:50.057Z,98318.34
2023-01-11T05:22:51.321Z,98321.28
2023-01-11T05:23:53.214Z,98319.31
2023-01-11T05:24:54.468Z,98322.75
2023-01-11T05:25:55.687Z,98326.84
2023-01-11T05:26:56.908Z,98325.88
2023-01-11T05:27:58.231Z,98323.03
2023-01-11T05:29:00.513Z,98324.13
2023-01-11T05:30:01.786Z,98321.28
2023-01-11T05:31:03.110Z,98317.34
2023-01-11T05:32:04.470Z,98319.22
2023-01-11T05:33:05.671Z,98317.66
2023-01-11T05:34:07.432Z,98316.97
2023-01-11T05:35:08.850Z,98325.44
2023-01-11T05:36:14.324Z,98322.63
2023-01-11T05:37:15.550Z,98324.00
2023-01-11T05:38:16.748Z,98322.13
2023-01-11T05:39:18.011Z,98317.91
2023-01-11T05:40:19.249Z,98329.28
2023-01-11T05:41:21.596Z,98325.38
2023-01-11T05:42:22.800Z,98323.78
2023-01-11T05:43:24.360Z,98324.56
2023-01-11T05:44:25.567Z,98322.44
2023-01-11T05:45:26.785Z,98324.38
2023-01-11T05:46:28.178Z,98323.78
2023-01-11T05:47:29.422Z,98323.19
2023-01-11T05:48:30.689Z,98323.19
2023-01-11T05:49:31.944Z,98322.72
2023-01-11T05:50:33.153Z,98321.72
2023-01-11T05:51:34.800Z,98322.31
2023-01-11T05:52:36.068Z,98313.13
2023-01-11T05:53:37.275Z,98314.09
2023-01-11T05:54:38.467Z,98321.22
2023-01-11T05:55:39.728Z,98313.31
2023-01-11T05:56:41.073Z,98308.41
2023-01-11T05:57:42.707Z,98311.13
2023-01-11T05:58:46.962Z,98308.50
2023-01-11T05:59:48.240Z,98309.88
2023-01-11T06:00:50.078Z,98303.03
2023-01-11T06:01:51.454Z,98301.78
2023-01-11T06:02:52.984Z,98298.16
2023-01-11T06:03:54.248Z,98294.81
2023-01-11T06:04:55.607Z,98299.38
2023-01-11T06:05:58.501Z,98290.66
2023-01-11T06:06:59.765Z,98297.50
2023-01-11T06:08:00.982Z,98290.88
2023-01-11T06:09:02.224Z,98286.28
2023-01-11T06:10:03.556Z,98282.97
2023-01-11T06:11:04.897Z,98278.75
2023-01-11T06:12:06.290Z,98280.78
2023-01-11T06:13:07.548Z,98277.19
2023-01-11T06:14:08.810Z,98278.84
2023-01-11T06:15:10.147Z,98273.25
2023-01-11T06:16:13.079Z,98271.00
2023-01-11T06:17:14.406Z,98275.00
2023-01-11T06:18:15.706Z,98275.31
2023-01-11T06:19:17.001Z,98275.78
2023-01-11T06:20:18.259Z,98272.16
2023-01-11T06:21:20.028Z,98267.94
2023-01-11T06:22:21.312Z,98265.91
2023-01-11T06:23:23.154Z,98266.69
2023-01-11T06:24:24.392Z,98265.59
2023-01-11T06:25:25.596Z,98265.03
2023-01-11T06:26:26.873Z,98266.09
2023-01-11T06:27:28.129Z,98268.16
2023-01-11T06:28:29.396Z,98259.47
2023-01-11T06:29:30.640Z,98253.88
2023-01-11T06:30:31.924Z,98259.94
2023-01-11T06:31:33.179Z,98260.53
2023-01-11T06:32:34.417Z,98259.53
2023-01-11T06:33:36.148Z,98266.69
2023-01-11T06:34:37.593Z,98262.75
2023-01-11T06:35:39.998Z,98254.84
2023-01-11T06:36:41.275Z,98260.63
2023-01-11T06:37:42.519Z,98260.91
2023-01-11T06:38:44.194Z,98262.75
2023-01-11T06:39:45.423Z,98264.13
2023-01-11T06:40:52.812Z,98261.50
2023-01-11T06:41:54.071Z,98261.50
2023-01-11T06:42:55.310Z,98261.69
2023-01-11T06:43:56.591Z,98264.63
2023-01-11T06:44:57.817Z,98259.53
2023-01-11T06:45:59.191Z,98260.41
2023-01-11T06:47:00.497Z,98261.50
2023-01-11T06:48:01.780Z,98261.19
2023-01-11T06:49:03.065Z,98262.75
2023-01-11T06:50:04.495Z,98262.47
2023-01-11T06:51:05.715Z,98266.97
2023-01-11T06:52:07.008Z,98264.63
2023-01-11T06:53:08.248Z,98272.06
2023-01-11T06:54:09.462Z,98272.06
2023-01-11T06:55:10.677Z,98274.88
2023-01-11T06:56:13.147Z,98266.38
2023-01-11T06:57:14.377Z,98278.31
2023-01-11T06:58:15.805Z,98274.88
2023-01-11T06:59:17.069Z,98275.16
2023-01-11T07:00:18.526Z,98286.25
2023-01-11T07:01:19.893Z,98276.47
2023-01-11T07:02:21.435Z,98279.19
2023-01-11T07:03:23.598Z,98275.00
2023-01-11T07:04:24.903Z,98279.81
2023-01-11T07:05:26.265Z,98271.28
2023-01-11T07:06:27.538Z,98267.09
2023-01-11T07:07:28.832Z,98269.72
2023-01-11T07:08:30.105Z,98268.84
2023-01-11T07:09:31.385Z,98272.06
2023-01-11T07:10:32.654Z,98263.88
2023-01-11T07:11:33.914Z,98255.44
2023-01-11T07:12:35.585Z,98261.59
2023-01-11T07:13:36.860Z,98255.25
2023-01-11T07:14:38.098Z,98257.13
2023-01-11T07:15:39.408Z,98256.13
2023-01-11T07:16:40.954Z,98253.50
2023-01-11T07:17:42.165Z,98255.53
2023-01-11T07:18:45.801Z,98249.47
2023-01-11T07:19:47.758Z,98257.38
2023-01-11T07:20:50.605Z,98248.59
2023-01-11T07:21:51.817Z,98244.88
2023-01-11T07:22:56.528Z,98242.25
2023-01-11T07:23:57.761Z,98253.00
2023-01-11T07:24:59.012Z,98248.72
2023-01-11T07:26:00.317Z,98249.81
2023-01-11T07:27:01.567Z,98243.75
2023-01-11T07:28:05.964Z,98243.13
2023-01-11T07:29:07.729Z,98245.13
2023-01-11T07:30:10.014Z,98250.00
2023-01-11T07:31:11.421Z,98248.84
2023-01-11T07:32:12.713Z,98248.66
2023-01-11T07:33:14.022Z,98247.25
2023-01-11T07:34:15.333Z,98252.97
2023-01-11T07:35:16.592Z,98256.38
2023-01-11T07:36:17.838Z,98253.16
2023-01-11T07:37:28.620Z,98263.13
2023-01-11T07:38:31.800Z,98262.47
2023-01-11T07:39:42.809Z,98258.22
2023-01-11T07:40:44.783Z,98262.25
2023-01-11T07:41:45.997Z,98261.19
2023-01-11T07:42:51.383Z,98262.47
2023-01-11T07:43:52.637Z,98259.41
2023-01-11T07:44:53.913Z,98260.19
2023-01-11T07:45:56.203Z,98267.81
2023-01-11T07:46:57.610Z,98265.78
2023-01-11T07:47:58.946Z,98266.75
2023-01-11T07:49:00.148Z,98258.72
2023-01-11T07:50:01.624Z,98262.72
2023-01-11T07:51:02.870Z,98261.94
2023-01-11T07:52:04.311Z,98265.06
2023-01-11T07:53:05.728Z,98257.66
2023-01-11T07:54:06.948Z,98267.13
2023-01-11T07:55:08.422Z,98261.25
2023-01-11T07:56:09.631Z,98264.38
2023-01-11T07:57:10.889Z,98268.31
2023-01-11T07:58:12.673Z,98263.81
2023-01-11T07:59:13.880Z,98266.91
2023-01-11T08:00:15.419Z,98260.44
2023-01-11T08:01:16.666Z,98265.63
2023-01-11T08:02:17.925Z,98263.69
2023-01-11T08:03:19.544Z,98261.50
2023-01-11T08:04:20.891Z,98264.16
2023-01-11T08:05:22.196Z,98269.91
2023-01-11T08:06:23.433Z,98268.25
2023-01-11T08:07:24.639Z,98266.25
2023-01-11T08:08:25.884Z,98264.59
2023-01-11T08:09:27.106Z,98261.66
2023-01-11T08:10:28.391Z,98254.69
2023-01-11T08:11:30.271Z,98255.66
2023-01-11T08:12:31.514Z,98254.47
2023-01-11T08:13:32.810Z,98257.00
2023-01-11T08:14:34.061Z,98256.19
2023-01-11T08:15:35.569Z,98257.28
2023-01-11T08:16:38.899Z,98263.34
2023-01-11T08:17:40.127Z,98262.56
2023-01-11T08:18:41.417Z,98262.56
2023-01-11T08:19:43.268Z,98269.16
2023-01-11T08:20:44.560Z,98261.69
2023-01-11T08:21:45.826Z,98263.84
2023-01-11T08:22:47.267Z,98261.22
2023-01-11T08:23:48.778Z,98261.97
2023-01-11T08:24:50.053Z,98263.13
2023-01-11T08:25:55.848Z,98265.47
2023-01-11T08:26:57.136Z,98264.09
2023-01-11T08:28:01.518Z,98267.50
2023-01-11T08:29:02.849Z,98257.41
2023-01-11T08:30:04.320Z,98261.16
2023-01-11T08:31:09.092Z,98261.16
2023-01-11T08:32:11.597Z,98257.47
2023-01-11T08:33:12.799Z,98259.22
2023-01-11T08:34:15.114Z,98255.00
2023-01-11T08:35:16.324Z,98244.78
2023-01-11T08:36:17.571Z,98239.47
2023-01-11T08:37:18.774Z,98236.53
2023-01-11T08:38:19.991Z,98242.91
2023-01-11T08:39:21.230Z,98244.97
2023-01-11T08:40:24.211Z,98245.75
2023-01-11T08:41:25.695Z,98251.69
2023-01-11T08:42:26.914Z,98244.72
2023-01-11T08:43:28.174Z,98249.03
2023-01-11T08:44:34.194Z,98252.28
2023-01-11T08:45:35.816Z,98248.25
2023-01-11T08:46:37.137Z,98250.28
2023-01-11T08:47:38.421Z,98245.47
2023-01-11T08:48:39.740Z,98247.22
2023-01-11T08:49:42.779Z,98248.69
2023-01-11T08:50:44.073Z,98251.00
2023-01-11T08:51:45.325Z,98248.38
2023-01-11T08:52:46.633Z,98248.69
2023-01-11T08:53:47.886Z,98248.19
2023-01-11T08:54:49.146Z,98243.69
2023-01-11T08:55:50.934Z,98246.03
2023-01-11T08:56:52.139Z,98248.19
2023-01-11T08:57:53.382Z,98253.00
2023-01-11T08:58:54.629Z,98243.19
2023-01-11T08:59:55.901Z,98246.84
2023-01-11T09:00:57.789Z,98251.38
2023-01-11T09:01:59.125Z,98245.31
2023-01-11T09:03:02.204Z,98253.13
2023-01-11T09:04:09.432Z,98246.53
2023-01-11T09:05:19.395Z,98251.66
2023-01-11T09:06:20.612Z,98245.16
2023-01-11T09:07:21.894Z,98243.44
2023-01-11T09:08:23.741Z,98249.00
2023-01-11T09:09:25.033Z,98251.50
2023-01-11T09:10:26.243Z,98248.09
2023-01-11T09:11:27.450Z,98260.56
2023-01-11T09:12:28.699Z,98251.84
2023-01-11T09:13:29.933Z,98251.09
2023-01-11T09:14:31.234Z,98252.97
2023-01-11T09:15:32.561Z,98249.06
2023-01-11T09:16:33.869Z,98248.16
2023-01-11T09:17:35.146Z,98247.69
2023-01-11T09:18:36.396Z,98247.69
2023-01-11T09:19:37.629Z,98245.81
2023-01-11T09:20:38.879Z,98242.66
2023-01-11T09:21:40.128Z,98251.41
2023-01-11T09:22:45.284Z,98246.13
2023-01-11T09:23:46.530Z,98250.34
2023-01-11T09:24:47.805Z,98243.03
2023-01-11T09:25:49.019Z,98243.81
2023-01-11T09:26:50.301Z,98249.56
2023-01-11T09:27:51.714Z,98248.19
2023-01-11T09:28:52.942Z,98247.69
2023-01-11T09:29:54.260Z,98248.66
2023-01-11T09:30:55.534Z,98247.41
2023-01-11T09:31:56.868Z,98250.69
2023-01-11T09:32:58.124Z,98242.44
2023-01-11T09:33:59.391Z,98246.97
2023-01-11T09:35:00.620Z,98256.78
2023-01-11T09:36:01.826Z,98251.78
2023-01-11T09:37:03.836Z,98254.44
2023-01-11T09:38:05.072Z,98248.22
2023-01-11T09:39:07.809Z,98251.97
2023-01-11T09:40:15.346Z,98249.19
2023-01-11T09:41:36.303Z,98248.22
2023-01-11T09:42:40.837Z,98253.38
2023-01-11T09:43:48.562Z,98252.91
2023-01-11T09:44:56.567Z,98251.50
2023-01-11T09:46:01.511Z,98256.97
2023-01-11T09:47:05.518Z,98257.72
2023-01-11T09:48:14.878Z,98250.41
2023-01-11T09:49:18.685Z,98245.44
2023-01-11T09:50:22.901Z,98235.75
2023-01-11T09:51:28.454Z,98245.25
2023-01-11T09:52:29.697Z,98245.72
2023-01-11T09:53:35.139Z,98247.78
2023-01-11T09:54:36.403Z,98248.38
2023-01-11T09:55:44.228Z,98242.28
2023-01-11T09:56:50.252Z,98246.38
2023-01-11T09:57:54.539Z,98251.69
2023-01-11T09:58:59.619Z,98237.38
2023-01-11T10:00:06.862Z,98241.44
2023-01-11T10:01:27.947Z,98245.19
2023-01-11T10:02:50.426Z,98247.34
2023-01-11T10:03:51.661Z,98246.56
2023-01-11T10:04:56.065Z,98250.31
2023-01-11T10:06:00.379Z,98251.25
2023-01-11T10:07:23.112Z,98249.22
2023-01-11T10:18:22.340Z,98238.00
2023-01-11T10:18:26.400Z,98243.03
2023-01-11T10:18:41.379Z,98246.75
2023-01-11T10:19:46.499Z,98235.69
2023-01-11T10:20:51.216Z,98246.31
2023-01-11T10:21:58.649Z,98238.19
2023-01-11T10:23:20.114Z,98249.56
2023-01-11T10:24:24.619Z,98242.09
2023-01-11T10:25:26.068Z,98238.94
2023-01-11T10:26:29.484Z,98240.81
2023-01-11T10:27:37.366Z,98243.97
2023-01-11T10:28:51.874Z,98247.69
2023-01-11T10:29:53.964Z,98245.53
2023-01-11T10:30:55.701Z,98242.88
2023-01-11T10:32:00.165Z,98240.69
2023-01-11T10:33:04.616Z,98246.75
2023-01-11T10:34:06.545Z,98239.59
2023-01-11T10:35:26.080Z,98243.66
2023-01-11T10:36:29.354Z,98249.91
2023-01-11T10:37:34.294Z,98234.28
2023-01-11T10:38:38.183Z,98238.19
2023-01-11T10:39:45.656Z,98238.19
2023-01-11T10:40:51.081Z,98236.63
2023-01-11T10:41:55.359Z,98245.84
2023-01-11T10:42:59.676Z,98236.16
2023-01-11T10:44:10.232Z,98229.63
2023-01-11T10:45:34.509Z,98235.25
2023-01-11T10:46:38.178Z,98234.78
2023-01-11T10:47:43.085Z,98234.00
2023-01-11T10:48:45.324Z,98236.16
2023-01-11T10:49:50.136Z,98233.53
2023-01-11T10:50:59.752Z,98234.28
2023-01-11T10:52:06.073Z,98233.84
2023-01-11T10:53:12.902Z,98230.09
2023-01-11T10:54:21.057Z,98236.50
2023-01-11T10:57:03.225Z,98234.94
2023-01-11T10:58:06.498Z,98229.91
2023-01-11T10:59:26.165Z,98239.13
2023-01-11T11:00:32.815Z,98236.00
2023-01-11T11:01:45.922Z,98237.41
2023-01-11T11:02:53.401Z,98232.28
2023-01-11T11:03:54.597Z,98230.09
2023-01-11T11:05:14.447Z,98229.78
2023-01-11T11:06:27.679Z,98223.84
2023-01-11T11:07:34.397Z,98230.69
2023-01-11T11:08:46.978Z,98224.16
2023-01-11T11:09:57.672Z,98224.47
2023-01-11T11:11:04.709Z,98223.22
2023-01-11T11:12:09.969Z,98223.53
2023-01-11T11:13:17.492Z,98219.47
2023-01-11T11:14:23.829Z,98224.47
2023-01-11T11:15:41.048Z,98218.38
2023-01-11T11:16:57.272Z,98227.75
2023-01-11T11:17:58.637Z,98215.84
2023-01-11T11:18:59.858Z,98224.31
2023-01-11T11:20:04.848Z,98219.78
2023-01-11T11:21:10.494Z,98231.78
2023-01-11T11:22:12.148Z,98221.50
2023-01-11T11:23:19.746Z,98218.84
2023-01-11T11:24:22.717Z,98222.13
2023-01-11T11:25:23.940Z,98226.03
2023-01-11T11:26:28.184Z,98219.63
2023-01-11T11:27:36.754Z,98221.19
2023-01-11T11:28:38.002Z,98211.81
2023-01-11T11:29:43.721Z,98226.63
2023-01-11T11:30:46.659Z,98221.81
2023-01-11T11:31:49.054Z,98221.34
2023-01-11T11:32:54.446Z,98223.22
2023-01-11T11:33:56.005Z,98216.53
2023-01-11T11:34:57.545Z,98214.31
2023-01-11T11:36:00.432Z,98215.09
2023-01-11T11:37:01.740Z,98217.91
2023-01-11T11:38:03.381Z,98221.97
2023-01-11T11:39:25.102Z,98216.06
2023-01-11T11:40:30.962Z,98211.22
2023-01-11T11:41:44.405Z,98207.47
2023-01-11T11:42:45.649Z,98211.66
2023-01-11T11:43:47.454Z,98212.75
2023-01-11T11:45:04.846Z,98209.34
2023-01-11T11:46:20.759Z,98212.78
2023-01-11T11:47:21.978Z,98207.78
2023-01-11T11:48:24.081Z,98217.91
2023-01-11T11:49:25.798Z,98208.72
2023-01-11T11:50:43.653Z,98214.03
2023-01-11T11:51:46.994Z,98214.66
2023-01-11T11:52:51.587Z,98213.88
2023-01-11T11:53:53.982Z,98208.09
2023-01-11T11:54:57.117Z,98209.81
2023-01-11T11:55:59.231Z,98212.31
2023-01-11T11:57:13.203Z,98211.22
2023-01-11T11:58:18.227Z,98211.38
2023-01-11T11:59:20.708Z,98210.59
2023-01-11T12:00:25.145Z,98211.81
2023-01-11T12:01:32.590Z,98208.72
2023-01-11T12:02:35.409Z,98204.50
2023-01-11T12:03:36.720Z,98207.47
2023-01-11T12:04:38.216Z,98211.97
2023-01-11T12:05:48.407Z,98207.78
2023-01-11T12:07:08.410Z,98198.56
2023-01-11T12:08:14.233Z,98199.66
2023-01-11T12:09:35.806Z,98204.16
2023-01-11T12:10:45.726Z,98195.94
2023-01-11T12:11:47.987Z,98192.94
2023-01-11T12:12:51.177Z,98198.72
2023-01-11T12:14:03.759Z,98196.88
2023-01-11T12:15:06.796Z,98198.72
2023-01-11T12:16:21.283Z,98196.88
2023-01-11T12:17:24.009Z,98194.66
2023-01-11T12:18:37.794Z,98198.41
2023-01-11T12:19:45.440Z,98198.72
2023-01-11T12:20:46.692Z,98203.41
2023-01-11T12:21:47.911Z,98192.03
2023-01-11T12:23:12.286Z,98196.06
2023-01-11T12:24:15.238Z,98194.81
2023-01-11T12:25:16.517Z,98201.53
2023-01-11T12:26:19.933Z,98192.50
2023-01-11T12:27:40.014Z,98187.47
2023-01-11T12:28:50.307Z,98193.56
2023-01-11T12:29:57.382Z,98190.91
2023-01-11T12:31:01.384Z,98198.41
2023-01-11T12:32:21.080Z,98192.31
2023-01-11T12:33:28.189Z,98187.81
2023-01-11T12:34:29.378Z,98187.47
2023-01-11T12:35:35.514Z,98193.88
2023-01-11T12:37:05.998Z,98194.34
2023-01-11T12:38:13.735Z,98192.50
2023-01-11T12:39:21.232Z,98196.06